Terminal Aerodrome Forecast
Issued by NWS St Louis, MO

Home | Current Version | Previous Version | Graphics & Text | Print | Product List | Glossary On
Versions: 1 2 3 4 5 6 7 8 9 10 11 12 13 14 15 16 17 18 19 20 21 22 23 24 25 26 27 28 29 30 31 32
980
FTUS43 KLSX 242321
TAFSTL
TAF
KSTL 242321Z 2500/2606 14008KT 2SM BR VCSH OVC002
     FM250200 19008KT P6SM OVC003
     FM250300 22010G20KT P6SM OVC003
     FM250400 24012G23KT P6SM BKN008
     FM250500 26014G27KT P6SM BKN010
     FM250700 28016G27KT P6SM BKN250
     FM251000 27009KT P6SM FEW250
     FM252200 23005KT P6SM SKC=

USA.gov is the U.S. government's official web portal to all federal, state and local government web resources and services.